sensor_id;sensor_type;location;lat;lon;timestamp;P1;durP1;ratioP1;P2;durP2;ratioP2
62584;SDS011;48643;51.670;5.808;2024-03-02T00:01:34;3.13;;;1.60;;
62584;SDS011;48643;51.670;5.808;2024-03-02T00:04:02;5.43;;;1.90;;
62584;SDS011;48643;51.670;5.808;2024-03-02T00:06:33;2.92;;;1.65;;
62584;SDS011;48643;51.670;5.808;2024-03-02T00:09:00;3.35;;;1.70;;
62584;SDS011;48643;51.670;5.808;2024-03-02T00:11:27;3.33;;;1.70;;
62584;SDS011;48643;51.670;5.808;2024-03-02T00:13:54;2.33;;;1.45;;
62584;SDS011;48643;51.670;5.808;2024-03-02T00:16:21;6.03;;;1.70;;
62584;SDS011;48643;51.670;5.808;2024-03-02T00:18:48;2.67;;;1.40;;
62584;SDS011;48643;51.670;5.808;2024-03-02T00:21:15;2.90;;;1.50;;
62584;SDS011;48643;51.670;5.808;2024-03-02T00:23:47;3.50;;;1.80;;
62584;SDS011;48643;51.670;5.808;2024-03-02T00:26:15;2.97;;;1.58;;
62584;SDS011;48643;51.670;5.808;2024-03-02T00:28:42;2.28;;;1.60;;
62584;SDS011;48643;51.670;5.808;2024-03-02T00:31:11;3.57;;;1.73;;
62584;SDS011;48643;51.670;5.808;2024-03-02T00:33:43;3.35;;;1.92;;
62584;SDS011;48643;51.670;5.808;2024-03-02T00:36:14;2.50;;;1.40;;
62584;SDS011;48643;51.670;5.808;2024-03-02T00:38:49;2.38;;;1.58;;
62584;SDS011;48643;51.670;5.808;2024-03-02T00:41:24;3.88;;;1.52;;
62584;SDS011;48643;51.670;5.808;2024-03-02T00:43:58;2.47;;;1.45;;
62584;SDS011;48643;51.670;5.808;2024-03-02T00:46:33;2.72;;;1.40;;
62584;SDS011;48643;51.670;5.808;2024-03-02T00:49:02;2.47;;;1.40;;
62584;SDS011;48643;51.670;5.808;2024-03-02T00:51:37;2.60;;;1.50;;
62584;SDS011;48643;51.670;5.808;2024-03-02T00:54:05;2.72;;;1.50;;
62584;SDS011;48643;51.670;5.808;2024-03-02T00:56:33;1.98;;;1.40;;
62584;SDS011;48643;51.670;5.808;2024-03-02T01:01:30;3.50;;;1.50;;
62584;SDS011;48643;51.670;5.808;2024-03-02T01:03:57;2.97;;;1.20;;
62584;SDS011;48643;51.670;5.808;2024-03-02T01:06:24;2.15;;;1.48;;
62584;SDS011;48643;51.670;5.808;2024-03-02T01:08:51;2.38;;;1.50;;
62584;SDS011;48643;51.670;5.808;2024-03-02T01:11:19;2.55;;;1.33;;
62584;SDS011;48643;51.670;5.808;2024-03-02T01:13:49;2.13;;;1.33;;
62584;SDS011;48643;51.670;5.808;2024-03-02T01:16:17;3.80;;;1.42;;
62584;SDS011;48643;51.670;5.808;2024-03-02T01:18:43;1.20;;;1.10;;
62584;SDS011;48643;51.670;5.808;2024-03-02T01:21:11;1.85;;;1.38;;
62584;SDS011;48643;51.670;5.808;2024-03-02T01:23:38;1.65;;;1.15;;
62584;SDS011;48643;51.670;5.808;2024-03-02T01:26:05;1.65;;;1.05;;
62584;SDS011;48643;51.670;5.808;2024-03-02T01:28:32;0.80;;;0.80;;
62584;SDS011;48643;51.670;5.808;2024-03-02T01:30:59;2.85;;;1.30;;
62584;SDS011;48643;51.670;5.808;2024-03-02T01:33:25;2.08;;;1.02;;
62584;SDS011;48643;51.670;5.808;2024-03-02T01:35:52;1.55;;;1.02;;
62584;SDS011;48643;51.670;5.808;2024-03-02T01:38:19;2.22;;;1.08;;
62584;SDS011;48643;51.670;5.808;2024-03-02T01:40:46;2.03;;;1.20;;
62584;SDS011;48643;51.670;5.808;2024-03-02T01:43:13;2.53;;;1.10;;
62584;SDS011;48643;51.670;5.808;2024-03-02T01:45:41;0.90;;;0.88;;
62584;SDS011;48643;51.670;5.808;2024-03-02T01:48:08;1.23;;;0.90;;
62584;SDS011;48643;51.670;5.808;2024-03-02T01:50:35;0.98;;;0.85;;
62584;SDS011;48643;51.670;5.808;2024-03-02T01:53:03;1.95;;;1.00;;
62584;SDS011;48643;51.670;5.808;2024-03-02T01:55:30;2.28;;;1.00;;
62584;SDS011;48643;51.670;5.808;2024-03-02T01:57:57;1.25;;;1.10;;
62584;SDS011;48643;51.670;5.808;2024-03-02T02:00:25;1.10;;;1.00;;
62584;SDS011;48643;51.670;5.808;2024-03-02T02:02:53;1.40;;;0.85;;
62584;SDS011;48643;51.670;5.808;2024-03-02T02:05:21;1.58;;;0.90;;
62584;SDS011;48643;51.670;5.808;2024-03-02T02:07:48;1.38;;;0.95;;
62584;SDS011;48643;51.670;5.808;2024-03-02T02:10:15;1.75;;;0.70;;
62584;SDS011;48643;51.670;5.808;2024-03-02T02:12:42;1.25;;;1.08;;
62584;SDS011;48643;51.670;5.808;2024-03-02T02:15:25;1.08;;;0.80;;
62584;SDS011;48643;51.670;5.808;2024-03-02T02:17:53;1.00;;;0.90;;
62584;SDS011;48643;51.670;5.808;2024-03-02T02:20:21;1.27;;;0.80;;
62584;SDS011;48643;51.670;5.808;2024-03-02T02:25:28;1.00;;;0.90;;
62584;SDS011;48643;51.670;5.808;2024-03-02T02:27:56;1.63;;;0.80;;
62584;SDS011;48643;51.670;5.808;2024-03-02T02:30:25;1.08;;;0.90;;
62584;SDS011;48643;51.670;5.808;2024-03-02T02:32:53;2.55;;;1.13;;
62584;SDS011;48643;51.670;5.808;2024-03-02T02:35:21;1.55;;;0.90;;
62584;SDS011;48643;51.670;5.808;2024-03-02T02:37:48;2.65;;;1.00;;
62584;SDS011;48643;51.670;5.808;2024-03-02T02:40:16;1.52;;;0.95;;
62584;SDS011;48643;51.670;5.808;2024-03-02T02:42:45;1.27;;;0.90;;
62584;SDS011;48643;51.670;5.808;2024-03-02T02:45:12;1.13;;;0.80;;
62584;SDS011;48643;51.670;5.808;2024-03-02T02:47:41;1.02;;;0.73;;
62584;SDS011;48643;51.670;5.808;2024-03-02T02:50:09;1.38;;;0.93;;
62584;SDS011;48643;51.670;5.808;2024-03-02T02:52:38;1.02;;;0.80;;
62584;SDS011;48643;51.670;5.808;2024-03-02T02:55:07;1.60;;;0.70;;
62584;SDS011;48643;51.670;5.808;2024-03-02T02:57:35;1.10;;;0.60;;
62584;SDS011;48643;51.670;5.808;2024-03-02T03:00:09;2.85;;;0.80;;
62584;SDS011;48643;51.670;5.808;2024-03-02T03:02:37;2.50;;;0.90;;
62584;SDS011;48643;51.670;5.808;2024-03-02T03:05:05;1.20;;;0.85;;
62584;SDS011;48643;51.670;5.808;2024-03-02T03:07:35;0.82;;;0.60;;
62584;SDS011;48643;51.670;5.808;2024-03-02T03:10:03;2.08;;;0.73;;
62584;SDS011;48643;51.670;5.808;2024-03-02T03:12:30;2.15;;;0.70;;
62584;SDS011;48643;51.670;5.808;2024-03-02T03:14:57;1.83;;;0.77;;
62584;SDS011;48643;51.670;5.808;2024-03-02T03:17:24;1.10;;;0.77;;
62584;SDS011;48643;51.670;5.808;2024-03-02T03:19:51;0.70;;;0.70;;
62584;SDS011;48643;51.670;5.808;2024-03-02T03:22:18;2.58;;;1.10;;
62584;SDS011;48643;51.670;5.808;2024-03-02T03:24:45;1.17;;;0.75;;
62584;SDS011;48643;51.670;5.808;2024-03-02T03:27:13;0.77;;;0.70;;
62584;SDS011;48643;51.670;5.808;2024-03-02T03:29:40;4.57;;;0.70;;
62584;SDS011;48643;51.670;5.808;2024-03-02T03:32:07;1.58;;;0.85;;
62584;SDS011;48643;51.670;5.808;2024-03-02T03:34:34;3.08;;;0.80;;
62584;SDS011;48643;51.670;5.808;2024-03-02T03:37:02;0.82;;;0.68;;
62584;SDS011;48643;51.670;5.808;2024-03-02T03:39:29;3.80;;;0.85;;
62584;SDS011;48643;51.670;5.808;2024-03-02T03:41:56;1.63;;;0.95;;
62584;SDS011;48643;51.670;5.808;2024-03-02T03:44:22;0.95;;;0.73;;
62584;SDS011;48643;51.670;5.808;2024-03-02T03:46:49;1.63;;;0.80;;
62584;SDS011;48643;51.670;5.808;2024-03-02T03:49:16;1.50;;;0.77;;
62584;SDS011;48643;51.670;5.808;2024-03-02T03:51:43;2.42;;;0.90;;
62584;SDS011;48643;51.670;5.808;2024-03-02T03:54:10;1.00;;;0.68;;
62584;SDS011;48643;51.670;5.808;2024-03-02T03:56:37;1.30;;;0.88;;
62584;SDS011;48643;51.670;5.808;2024-03-02T03:59:04;1.63;;;0.80;;
62584;SDS011;48643;51.670;5.808;2024-03-02T04:01:31;1.67;;;0.60;;
62584;SDS011;48643;51.670;5.808;2024-03-02T04:03:58;1.88;;;1.00;;
62584;SDS011;48643;51.670;5.808;2024-03-02T04:06:25;0.75;;;0.60;;
62584;SDS011;48643;51.670;5.808;2024-03-02T04:08:52;1.38;;;0.80;;
62584;SDS011;48643;51.670;5.808;2024-03-02T04:11:19;1.02;;;0.80;;
62584;SDS011;48643;51.670;5.808;2024-03-02T04:13:46;1.10;;;0.85;;
62584;SDS011;48643;51.670;5.808;2024-03-02T04:16:12;0.90;;;0.75;;
62584;SDS011;48643;51.670;5.808;2024-03-02T04:18:39;0.65;;;0.60;;
62584;SDS011;48643;51.670;5.808;2024-03-02T04:21:06;0.60;;;0.60;;
62584;SDS011;48643;51.670;5.808;2024-03-02T04:23:33;3.63;;;0.90;;
62584;SDS011;48643;51.670;5.808;2024-03-02T04:26:00;1.50;;;0.70;;
62584;SDS011;48643;51.670;5.808;2024-03-02T04:28:27;1.85;;;0.70;;
62584;SDS011;48643;51.670;5.808;2024-03-02T04:30:54;1.75;;;0.73;;
62584;SDS011;48643;51.670;5.808;2024-03-02T04:33:21;1.60;;;0.80;;
62584;SDS011;48643;51.670;5.808;2024-03-02T04:35:48;1.40;;;0.82;;
62584;SDS011;48643;51.670;5.808;2024-03-02T04:38:14;1.48;;;0.70;;
62584;SDS011;48643;51.670;5.808;2024-03-02T04:40:41;2.28;;;0.70;;
62584;SDS011;48643;51.670;5.808;2024-03-02T04:43:08;1.77;;;0.60;;
62584;SDS011;48643;51.670;5.808;2024-03-02T04:45:37;1.23;;;0.80;;
62584;SDS011;48643;51.670;5.808;2024-03-02T04:48:04;1.83;;;0.77;;
62584;SDS011;48643;51.670;5.808;2024-03-02T04:50:32;1.92;;;0.80;;
62584;SDS011;48643;51.670;5.808;2024-03-02T04:52:58;1.38;;;0.93;;
62584;SDS011;48643;51.670;5.808;2024-03-02T04:55:25;1.60;;;0.90;;
62584;SDS011;48643;51.670;5.808;2024-03-02T05:00:22;1.60;;;0.90;;
62584;SDS011;48643;51.670;5.808;2024-03-02T05:02:49;2.35;;;1.08;;
62584;SDS011;48643;51.670;5.808;2024-03-02T05:05:17;2.17;;;0.95;;
62584;SDS011;48643;51.670;5.808;2024-03-02T05:07:44;1.80;;;0.70;;
62584;SDS011;48643;51.670;5.808;2024-03-02T05:10:11;0.98;;;0.70;;
62584;SDS011;48643;51.670;5.808;2024-03-02T05:12:38;0.82;;;0.63;;
62584;SDS011;48643;51.670;5.808;2024-03-02T05:15:12;0.95;;;0.60;;
62584;SDS011;48643;51.670;5.808;2024-03-02T05:17:40;0.97;;;0.67;;
62584;SDS011;48643;51.670;5.808;2024-03-02T05:22:36;1.98;;;0.65;;
62584;SDS011;48643;51.670;5.808;2024-03-02T05:25:04;0.90;;;0.70;;
62584;SDS011;48643;51.670;5.808;2024-03-02T05:27:31;0.90;;;0.68;;
62584;SDS011;48643;51.670;5.808;2024-03-02T05:30:01;1.20;;;0.82;;
62584;SDS011;48643;51.670;5.808;2024-03-02T05:32:28;1.20;;;0.80;;
62584;SDS011;48643;51.670;5.808;2024-03-02T05:34:55;0.65;;;0.50;;
62584;SDS011;48643;51.670;5.808;2024-03-02T05:37:22;1.30;;;0.80;;
62584;SDS011;48643;51.670;5.808;2024-03-02T05:39:49;0.60;;;0.60;;
62584;SDS011;48643;51.670;5.808;2024-03-02T05:42:16;0.73;;;0.68;;
62584;SDS011;48643;51.670;5.808;2024-03-02T05:47:12;0.80;;;0.63;;
62584;SDS011;48643;51.670;5.808;2024-03-02T05:49:39;0.65;;;0.57;;
62584;SDS011;48643;51.670;5.808;2024-03-02T05:52:06;0.75;;;0.50;;
62584;SDS011;48643;51.670;5.808;2024-03-02T05:54:33;2.85;;;0.70;;
62584;SDS011;48643;51.670;5.808;2024-03-02T05:57:00;1.25;;;0.80;;
62584;SDS011;48643;51.670;5.808;2024-03-02T05:59:43;1.10;;;0.70;;
62584;SDS011;48643;51.670;5.808;2024-03-02T06:02:10;1.17;;;0.75;;
62584;SDS011;48643;51.670;5.808;2024-03-02T06:04:37;1.58;;;0.80;;
62584;SDS011;48643;51.670;5.808;2024-03-02T06:07:04;1.30;;;0.70;;
62584;SDS011;48643;51.670;5.808;2024-03-02T06:09:31;0.77;;;0.63;;
62584;SDS011;48643;51.670;5.808;2024-03-02T06:11:58;0.80;;;0.73;;
62584;SDS011;48643;51.670;5.808;2024-03-02T06:14:25;1.33;;;0.63;;
62584;SDS011;48643;51.670;5.808;2024-03-02T06:16:52;0.90;;;0.60;;
62584;SDS011;48643;51.670;5.808;2024-03-02T06:19:19;1.00;;;0.55;;
62584;SDS011;48643;51.670;5.808;2024-03-02T06:21:45;0.60;;;0.47;;
62584;SDS011;48643;51.670;5.808;2024-03-02T06:24:12;1.17;;;0.52;;
62584;SDS011;48643;51.670;5.808;2024-03-02T06:26:39;1.40;;;0.60;;
62584;SDS011;48643;51.670;5.808;2024-03-02T06:29:06;0.77;;;0.45;;
62584;SDS011;48643;51.670;5.808;2024-03-02T06:31:34;1.48;;;0.80;;
62584;SDS011;48643;51.670;5.808;2024-03-02T06:34:01;1.48;;;0.60;;
62584;SDS011;48643;51.670;5.808;2024-03-02T06:36:31;2.70;;;0.93;;
62584;SDS011;48643;51.670;5.808;2024-03-02T06:38:58;2.97;;;0.80;;
62584;SDS011;48643;51.670;5.808;2024-03-02T06:41:25;0.75;;;0.60;;
62584;SDS011;48643;51.670;5.808;2024-03-02T06:43:53;1.95;;;0.90;;
62584;SDS011;48643;51.670;5.808;2024-03-02T06:46:26;1.15;;;0.75;;
62584;SDS011;48643;51.670;5.808;2024-03-02T06:48:53;1.58;;;0.90;;
62584;SDS011;48643;51.670;5.808;2024-03-02T06:51:20;2.15;;;1.00;;
62584;SDS011;48643;51.670;5.808;2024-03-02T06:53:47;1.35;;;0.80;;
62584;SDS011;48643;51.670;5.808;2024-03-02T06:56:14;2.25;;;1.02;;
62584;SDS011;48643;51.670;5.808;2024-03-02T06:58:41;1.90;;;0.90;;
62584;SDS011;48643;51.670;5.808;2024-03-02T07:01:09;1.80;;;0.80;;
62584;SDS011;48643;51.670;5.808;2024-03-02T07:03:36;1.25;;;0.75;;
62584;SDS011;48643;51.670;5.808;2024-03-02T07:06:03;1.38;;;0.68;;
62584;SDS011;48643;51.670;5.808;2024-03-02T07:08:30;1.52;;;0.70;;
62584;SDS011;48643;51.670;5.808;2024-03-02T07:10:57;0.93;;;0.80;;
62584;SDS011;48643;51.670;5.808;2024-03-02T07:13:24;1.15;;;0.70;;
62584;SDS011;48643;51.670;5.808;2024-03-02T07:15:50;1.90;;;0.95;;
62584;SDS011;48643;51.670;5.808;2024-03-02T07:18:26;1.05;;;0.90;;
62584;SDS011;48643;51.670;5.808;2024-03-02T07:20:53;1.05;;;0.80;;
62584;SDS011;48643;51.670;5.808;2024-03-02T07:23:21;1.15;;;0.90;;
62584;SDS011;48643;51.670;5.808;2024-03-02T07:28:25;1.05;;;0.90;;
62584;SDS011;48643;51.670;5.808;2024-03-02T07:33:30;1.63;;;0.80;;
62584;SDS011;48643;51.670;5.808;2024-03-02T07:35:58;1.55;;;1.00;;
62584;SDS011;48643;51.670;5.808;2024-03-02T07:38:30;1.33;;;0.63;;
62584;SDS011;48643;51.670;5.808;2024-03-02T07:40:58;1.58;;;0.80;;
62584;SDS011;48643;51.670;5.808;2024-03-02T07:43:24;1.02;;;0.85;;
62584;SDS011;48643;51.670;5.808;2024-03-02T07:45:52;2.30;;;1.10;;
62584;SDS011;48643;51.670;5.808;2024-03-02T07:48:19;1.45;;;0.70;;
62584;SDS011;48643;51.670;5.808;2024-03-02T07:50:46;5.00;;;1.08;;
62584;SDS011;48643;51.670;5.808;2024-03-02T07:53:13;1.83;;;0.80;;
62584;SDS011;48643;51.670;5.808;2024-03-02T07:55:41;5.97;;;0.90;;
62584;SDS011;48643;51.670;5.808;2024-03-02T07:58:08;1.60;;;0.90;;
62584;SDS011;48643;51.670;5.808;2024-03-02T08:00:35;2.63;;;0.95;;
62584;SDS011;48643;51.670;5.808;2024-03-02T08:03:02;2.35;;;1.13;;
62584;SDS011;48643;51.670;5.808;2024-03-02T08:05:29;2.20;;;1.00;;
62584;SDS011;48643;51.670;5.808;2024-03-02T08:07:56;3.63;;;1.20;;
62584;SDS011;48643;51.670;5.808;2024-03-02T08:10:23;1.02;;;0.80;;
62584;SDS011;48643;51.670;5.808;2024-03-02T08:12:50;2.88;;;0.93;;
62584;SDS011;48643;51.670;5.808;2024-03-02T08:15:17;2.53;;;0.80;;
62584;SDS011;48643;51.670;5.808;2024-03-02T08:17:44;2.03;;;1.10;;
62584;SDS011;48643;51.670;5.808;2024-03-02T08:20:15;2.83;;;1.27;;
62584;SDS011;48643;51.670;5.808;2024-03-02T08:22:42;2.35;;;1.10;;
62584;SDS011;48643;51.670;5.808;2024-03-02T08:25:09;4.30;;;1.02;;
62584;SDS011;48643;51.670;5.808;2024-03-02T08:27:36;2.22;;;1.10;;
62584;SDS011;48643;51.670;5.808;2024-03-02T08:30:05;4.47;;;1.50;;
62584;SDS011;48643;51.670;5.808;2024-03-02T08:32:33;4.57;;;1.23;;
62584;SDS011;48643;51.670;5.808;2024-03-02T08:35:00;2.88;;;1.17;;
62584;SDS011;48643;51.670;5.808;2024-03-02T08:37:27;2.20;;;0.75;;
62584;SDS011;48643;51.670;5.808;2024-03-02T08:39:55;3.10;;;0.98;;
62584;SDS011;48643;51.670;5.808;2024-03-02T08:42:22;2.20;;;1.10;;
62584;SDS011;48643;51.670;5.808;2024-03-02T08:44:50;4.10;;;1.00;;
62584;SDS011;48643;51.670;5.808;2024-03-02T08:47:18;4.00;;;1.02;;
62584;SDS011;48643;51.670;5.808;2024-03-02T08:49:44;2.38;;;1.15;;
62584;SDS011;48643;51.670;5.808;2024-03-02T08:52:11;12.35;;;1.45;;
62584;SDS011;48643;51.670;5.808;2024-03-02T08:54:39;1.70;;;1.00;;
62584;SDS011;48643;51.670;5.808;2024-03-02T08:57:06;3.40;;;1.33;;
62584;SDS011;48643;51.670;5.808;2024-03-02T08:59:33;8.63;;;1.70;;
62584;SDS011;48643;51.670;5.808;2024-03-02T09:02:00;3.97;;;1.58;;
62584;SDS011;48643;51.670;5.808;2024-03-02T09:04:27;4.90;;;1.17;;
62584;SDS011;48643;51.670;5.808;2024-03-02T09:06:59;5.93;;;1.55;;
62584;SDS011;48643;51.670;5.808;2024-03-02T09:09:26;7.43;;;1.48;;
62584;SDS011;48643;51.670;5.808;2024-03-02T09:11:53;6.43;;;1.50;;
62584;SDS011;48643;51.670;5.808;2024-03-02T09:14:24;3.85;;;1.50;;
62584;SDS011;48643;51.670;5.808;2024-03-02T09:16:51;5.80;;;1.50;;
62584;SDS011;48643;51.670;5.808;2024-03-02T09:19:18;3.63;;;1.60;;
62584;SDS011;48643;51.670;5.808;2024-03-02T09:21:45;4.25;;;1.48;;
62584;SDS011;48643;51.670;5.808;2024-03-02T09:24:12;3.47;;;1.30;;
62584;SDS011;48643;51.670;5.808;2024-03-02T09:26:43;4.38;;;1.20;;
62584;SDS011;48643;51.670;5.808;2024-03-02T09:29:10;3.95;;;1.30;;
62584;SDS011;48643;51.670;5.808;2024-03-02T09:31:40;3.10;;;1.40;;
62584;SDS011;48643;51.670;5.808;2024-03-02T09:34:08;6.95;;;1.75;;
62584;SDS011;48643;51.670;5.808;2024-03-02T09:36:35;8.40;;;1.30;;
62584;SDS011;48643;51.670;5.808;2024-03-02T09:39:02;5.97;;;1.58;;
62584;SDS011;48643;51.670;5.808;2024-03-02T09:41:30;3.08;;;1.38;;
62584;SDS011;48643;51.670;5.808;2024-03-02T09:43:58;3.15;;;1.42;;
62584;SDS011;48643;51.670;5.808;2024-03-02T09:46:25;7.05;;;1.48;;
62584;SDS011;48643;51.670;5.808;2024-03-02T09:48:52;7.75;;;1.65;;
62584;SDS011;48643;51.670;5.808;2024-03-02T09:51:19;6.57;;;1.60;;
62584;SDS011;48643;51.670;5.808;2024-03-02T09:53:46;9.27;;;1.40;;
62584;SDS011;48643;51.670;5.808;2024-03-02T09:56:14;17.88;;;2.05;;
62584;SDS011;48643;51.670;5.808;2024-03-02T09:58:47;8.20;;;1.73;;
62584;SDS011;48643;51.670;5.808;2024-03-02T10:01:14;11.13;;;2.90;;
62584;SDS011;48643;51.670;5.808;2024-03-02T10:03:41;6.55;;;1.50;;
62584;SDS011;48643;51.670;5.808;2024-03-02T10:06:18;6.45;;;1.83;;
62584;SDS011;48643;51.670;5.808;2024-03-02T10:08:49;10.10;;;1.90;;
62584;SDS011;48643;51.670;5.808;2024-03-02T10:14:12;5.88;;;1.73;;
62584;SDS011;48643;51.670;5.808;2024-03-02T10:16:40;4.90;;;1.60;;
62584;SDS011;48643;51.670;5.808;2024-03-02T10:19:21;4.55;;;1.58;;
62584;SDS011;48643;51.670;5.808;2024-03-02T10:21:53;5.80;;;1.65;;
62584;SDS011;48643;51.670;5.808;2024-03-02T10:24:21;7.10;;;1.50;;
62584;SDS011;48643;51.670;5.808;2024-03-02T10:26:49;4.70;;;1.33;;
62584;SDS011;48643;51.670;5.808;2024-03-02T10:29:16;5.30;;;1.40;;
62584;SDS011;48643;51.670;5.808;2024-03-02T10:31:44;4.03;;;1.50;;
62584;SDS011;48643;51.670;5.808;2024-03-02T10:34:12;4.00;;;1.73;;
62584;SDS011;48643;51.670;5.808;2024-03-02T10:36:42;6.65;;;1.60;;
62584;SDS011;48643;51.670;5.808;2024-03-02T10:39:13;6.18;;;1.50;;
62584;SDS011;48643;51.670;5.808;2024-03-02T10:41:40;5.85;;;1.60;;
62584;SDS011;48643;51.670;5.808;2024-03-02T10:44:08;5.43;;;1.60;;
62584;SDS011;48643;51.670;5.808;2024-03-02T10:46:36;5.90;;;1.63;;
62584;SDS011;48643;51.670;5.808;2024-03-02T10:49:04;5.72;;;1.50;;
62584;SDS011;48643;51.670;5.808;2024-03-02T10:51:34;5.18;;;1.60;;
62584;SDS011;48643;51.670;5.808;2024-03-02T10:54:03;4.65;;;1.50;;
62584;SDS011;48643;51.670;5.808;2024-03-02T10:56:31;4.80;;;1.60;;
62584;SDS011;48643;51.670;5.808;2024-03-02T10:59:03;3.03;;;1.65;;
62584;SDS011;48643;51.670;5.808;2024-03-02T11:01:36;2.83;;;1.40;;
62584;SDS011;48643;51.670;5.808;2024-03-02T11:06:33;3.63;;;1.25;;
62584;SDS011;48643;51.670;5.808;2024-03-02T11:09:06;4.25;;;1.60;;
62584;SDS011;48643;51.670;5.808;2024-03-02T11:11:36;2.85;;;1.40;;
62584;SDS011;48643;51.670;5.808;2024-03-02T11:14:04;6.85;;;1.50;;
62584;SDS011;48643;51.670;5.808;2024-03-02T11:16:35;6.30;;;1.52;;
62584;SDS011;48643;51.670;5.808;2024-03-02T11:19:06;1.97;;;1.37;;
62584;SDS011;48643;51.670;5.808;2024-03-02T11:21:37;3.30;;;1.50;;
62584;SDS011;48643;51.670;5.808;2024-03-02T11:26:50;4.15;;;1.10;;
62584;SDS011;48643;51.670;5.808;2024-03-02T11:32:04;6.43;;;2.22;;
62584;SDS011;48643;51.670;5.808;2024-03-02T11:34:33;11.03;;;4.67;;
62584;SDS011;48643;51.670;5.808;2024-03-02T11:37:01;12.02;;;6.78;;
62584;SDS011;48643;51.670;5.808;2024-03-02T11:39:28;11.50;;;7.53;;
62584;SDS011;48643;51.670;5.808;2024-03-02T11:41:56;11.90;;;7.10;;
62584;SDS011;48643;51.670;5.808;2024-03-02T11:44:25;9.60;;;5.70;;
62584;SDS011;48643;51.670;5.808;2024-03-02T11:46:59;11.52;;;6.00;;
62584;SDS011;48643;51.670;5.808;2024-03-02T11:52:05;9.07;;;5.13;;
62584;SDS011;48643;51.670;5.808;2024-03-02T11:54:33;6.55;;;4.43;;
62584;SDS011;48643;51.670;5.808;2024-03-02T11:57:02;8.18;;;4.35;;
62584;SDS011;48643;51.670;5.808;2024-03-02T11:59:29;5.97;;;4.20;;
62584;SDS011;48643;51.670;5.808;2024-03-02T12:01:56;8.50;;;4.60;;
62584;SDS011;48643;51.670;5.808;2024-03-02T12:04:24;6.57;;;3.53;;
62584;SDS011;48643;51.670;5.808;2024-03-02T12:06:55;5.70;;;3.22;;
62584;SDS011;48643;51.670;5.808;2024-03-02T12:09:29;8.70;;;4.22;;
62584;SDS011;48643;51.670;5.808;2024-03-02T12:12:09;9.60;;;3.78;;
62584;SDS011;48643;51.670;5.808;2024-03-02T12:14:37;7.05;;;4.05;;
62584;SDS011;48643;51.670;5.808;2024-03-02T12:17:05;5.67;;;3.67;;
62584;SDS011;48643;51.670;5.808;2024-03-02T12:19:32;6.82;;;3.72;;
62584;SDS011;48643;51.670;5.808;2024-03-02T12:22:00;4.63;;;3.28;;
62584;SDS011;48643;51.670;5.808;2024-03-02T12:24:28;6.28;;;2.90;;
62584;SDS011;48643;51.670;5.808;2024-03-02T12:26:55;6.20;;;2.70;;
62584;SDS011;48643;51.670;5.808;2024-03-02T12:29:23;5.63;;;2.78;;
62584;SDS011;48643;51.670;5.808;2024-03-02T12:31:52;5.68;;;2.70;;
62584;SDS011;48643;51.670;5.808;2024-03-02T12:34:20;6.40;;;2.53;;
62584;SDS011;48643;51.670;5.808;2024-03-02T12:36:48;4.03;;;2.50;;
62584;SDS011;48643;51.670;5.808;2024-03-02T12:39:19;3.70;;;2.35;;
62584;SDS011;48643;51.670;5.808;2024-03-02T12:41:51;6.05;;;2.60;;
62584;SDS011;48643;51.670;5.808;2024-03-02T12:44:21;5.03;;;2.50;;
62584;SDS011;48643;51.670;5.808;2024-03-02T12:46:47;3.35;;;2.33;;
62584;SDS011;48643;51.670;5.808;2024-03-02T12:49:15;9.73;;;5.60;;
62584;SDS011;48643;51.670;5.808;2024-03-02T12:51:47;5.45;;;2.47;;
62584;SDS011;48643;51.670;5.808;2024-03-02T12:54:18;4.35;;;2.25;;
62584;SDS011;48643;51.670;5.808;2024-03-02T12:56:48;4.00;;;2.30;;
62584;SDS011;48643;51.670;5.808;2024-03-02T12:59:21;3.92;;;2.30;;
62584;SDS011;48643;51.670;5.808;2024-03-02T13:01:53;3.05;;;1.90;;
62584;SDS011;48643;51.670;5.808;2024-03-02T13:04:24;3.17;;;1.90;;
62584;SDS011;48643;51.670;5.808;2024-03-02T13:06:55;4.00;;;1.83;;
62584;SDS011;48643;51.670;5.808;2024-03-02T13:09:25;3.53;;;1.83;;
62584;SDS011;48643;51.670;5.808;2024-03-02T13:11:52;3.42;;;1.90;;
62584;SDS011;48643;51.670;5.808;2024-03-02T13:14:21;20.02;;;11.32;;
62584;SDS011;48643;51.670;5.808;2024-03-02T13:16:51;6.35;;;4.40;;
62584;SDS011;48643;51.670;5.808;2024-03-02T13:19:19;3.03;;;1.48;;
62584;SDS011;48643;51.670;5.808;2024-03-02T13:21:45;3.63;;;1.73;;
62584;SDS011;48643;51.670;5.808;2024-03-02T13:24:13;5.15;;;1.77;;
62584;SDS011;48643;51.670;5.808;2024-03-02T13:26:39;3.35;;;2.00;;
62584;SDS011;48643;51.670;5.808;2024-03-02T13:29:06;3.55;;;1.90;;
62584;SDS011;48643;51.670;5.808;2024-03-02T13:31:35;3.05;;;1.60;;
62584;SDS011;48643;51.670;5.808;2024-03-02T13:34:02;3.30;;;1.90;;
62584;SDS011;48643;51.670;5.808;2024-03-02T13:36:29;2.83;;;1.80;;
62584;SDS011;48643;51.670;5.808;2024-03-02T13:38:56;3.15;;;1.90;;
62584;SDS011;48643;51.670;5.808;2024-03-02T13:41:24;4.97;;;1.90;;
62584;SDS011;48643;51.670;5.808;2024-03-02T13:43:51;5.03;;;2.00;;
62584;SDS011;48643;51.670;5.808;2024-03-02T13:46:19;4.78;;;2.17;;
62584;SDS011;48643;51.670;5.808;2024-03-02T13:48:47;3.08;;;1.92;;
62584;SDS011;48643;51.670;5.808;2024-03-02T13:51:14;3.22;;;1.90;;
62584;SDS011;48643;51.670;5.808;2024-03-02T13:53:41;3.15;;;1.98;;
62584;SDS011;48643;51.670;5.808;2024-03-02T13:56:07;2.17;;;1.45;;
62584;SDS011;48643;51.670;5.808;2024-03-02T13:58:34;2.50;;;1.50;;
62584;SDS011;48643;51.670;5.808;2024-03-02T14:01:01;4.78;;;1.60;;
62584;SDS011;48643;51.670;5.808;2024-03-02T14:03:31;3.83;;;1.60;;
62584;SDS011;48643;51.670;5.808;2024-03-02T14:05:58;4.97;;;1.50;;
62584;SDS011;48643;51.670;5.808;2024-03-02T14:08:24;3.50;;;1.30;;
62584;SDS011;48643;51.670;5.808;2024-03-02T14:10:51;2.70;;;1.33;;
62584;SDS011;48643;51.670;5.808;2024-03-02T14:13:18;3.55;;;1.38;;
62584;SDS011;48643;51.670;5.808;2024-03-02T14:15:45;23.40;;;2.40;;
62584;SDS011;48643;51.670;5.808;2024-03-02T14:18:12;3.40;;;1.40;;
62584;SDS011;48643;51.670;5.808;2024-03-02T14:20:39;6.82;;;1.55;;
62584;SDS011;48643;51.670;5.808;2024-03-02T14:23:08;4.50;;;1.48;;
62584;SDS011;48643;51.670;5.808;2024-03-02T14:25:36;5.10;;;1.50;;
62584;SDS011;48643;51.670;5.808;2024-03-02T14:28:03;3.90;;;1.45;;
62584;SDS011;48643;51.670;5.808;2024-03-02T14:30:50;2.08;;;1.27;;
62584;SDS011;48643;51.670;5.808;2024-03-02T14:33:17;3.40;;;1.40;;
62584;SDS011;48643;51.670;5.808;2024-03-02T14:35:44;4.93;;;1.40;;
62584;SDS011;48643;51.670;5.808;2024-03-02T14:38:12;2.92;;;1.30;;
62584;SDS011;48643;51.670;5.808;2024-03-02T14:40:39;5.47;;;1.45;;
62584;SDS011;48643;51.670;5.808;2024-03-02T14:43:05;2.50;;;1.10;;
62584;SDS011;48643;51.670;5.808;2024-03-02T14:45:32;3.45;;;1.33;;
62584;SDS011;48643;51.670;5.808;2024-03-02T14:47:59;1.55;;;1.20;;
62584;SDS011;48643;51.670;5.808;2024-03-02T14:50:27;2.40;;;1.30;;
62584;SDS011;48643;51.670;5.808;2024-03-02T14:52:54;3.45;;;1.30;;
62584;SDS011;48643;51.670;5.808;2024-03-02T14:55:24;2.50;;;1.27;;
62584;SDS011;48643;51.670;5.808;2024-03-02T14:57:50;2.50;;;1.38;;
62584;SDS011;48643;51.670;5.808;2024-03-02T15:00:17;2.60;;;1.20;;
62584;SDS011;48643;51.670;5.808;2024-03-02T15:02:45;1.80;;;1.20;;
62584;SDS011;48643;51.670;5.808;2024-03-02T15:05:12;1.40;;;1.02;;
62584;SDS011;48643;51.670;5.808;2024-03-02T15:07:38;4.00;;;1.33;;
62584;SDS011;48643;51.670;5.808;2024-03-02T15:10:05;3.50;;;1.10;;
62584;SDS011;48643;51.670;5.808;2024-03-02T15:12:33;4.38;;;1.20;;
62584;SDS011;48643;51.670;5.808;2024-03-02T15:15:00;4.30;;;1.40;;
62584;SDS011;48643;51.670;5.808;2024-03-02T15:17:27;3.53;;;1.15;;
62584;SDS011;48643;51.670;5.808;2024-03-02T15:19:53;2.47;;;1.10;;
62584;SDS011;48643;51.670;5.808;2024-03-02T15:22:20;5.03;;;1.10;;
62584;SDS011;48643;51.670;5.808;2024-03-02T15:24:47;1.48;;;1.00;;